Time;durP1;ratioP1;P1;durP2;ratioP2;P2;SDS_P1;SDS_P2;PMS_P1;PMS_P2;Temp;Humidity;BMP_temperature;BMP_pressure;BME280_temperature;BME280_humidity;BME280_pressure;Samples;Min_cycle;Max_cycle;Signal;HPM_P1;HPM_P2
2022/01/12 00:00:05;;;;;;;;;;;1.40;99.90;;;;;;5019592;28;20423;-85
2022/01/12 00:02:31;;;;;;;;;;;1.30;99.90;;;;;;5019235;28;19924;-85
2022/01/12 00:04:57;;;;;;;;;;;1.40;99.90;;;;;;5019633;28;20345;-85
2022/01/12 00:07:23;;;;;;;;;;;1.40;99.90;;;;;;5037189;28;20365;-85
2022/01/12 00:09:49;;;;;;;;;;;1.30;99.90;;;;;;5019325;28;19909;-85
2022/01/12 00:12:14;;;;;;;;;;;1.40;99.90;;;;;;5037040;28;19905;-85
2022/01/12 00:14:40;;;;;;;;;;;1.10;99.90;;;;;;5037284;28;19997;-85
2022/01/12 00:17:05;;;;;;;;;;;0.90;99.90;;;;;;5019267;28;19905;-85
2022/01/12 00:19:31;;;;;;;;;;;1.00;99.90;;;;;;5019172;28;19950;-85
2022/01/12 00:21:57;;;;;;;;;;;0.90;99.90;;;;;;5019100;28;20369;-84
2022/01/12 00:24:26;;;;;;;;;;;1.00;99.90;;;;;;5019092;28;19955;-85
2022/01/12 00:35:05;;;;;;;;;;;1.10;99.90;;;;;;5036958;28;20330;-84
2022/01/12 00:37:30;;;;;;;;;;;0.90;99.90;;;;;;5018814;28;19905;-84
2022/01/12 00:39:58;;;;;;;;;;;0.80;99.90;;;;;;5018738;28;19905;-84
2022/01/12 00:42:27;;;;;;;;;;;0.60;99.90;;;;;;5018629;28;19912;-84
2022/01/12 00:44:53;;;;;;;;;;;0.40;99.90;;;;;;5018574;28;19905;-84
2022/01/12 00:47:19;;;;;;;;;;;0.50;99.90;;;;;;5018539;28;20277;-84
2022/01/12 00:49:44;;;;;;;;;;;0.80;99.90;;;;;;5018559;28;19909;-84
2022/01/12 00:52:10;;;;;;;;;;;1.20;99.90;;;;;;5018591;28;19963;-84
2022/01/12 00:54:35;;;;;;;;;;;1.20;99.90;;;;;;5018508;28;19974;-84
2022/01/12 00:57:01;;;;;;;;;;;1.10;99.90;;;;;;5018556;28;19909;-84
2022/01/12 00:59:28;;;;;;;;;;;1.10;99.90;;;;;;5018406;28;20280;-84
2022/01/12 01:01:54;;;;;;;;;;;1.30;99.90;;;;;;5035728;28;19913;-84
2022/01/12 01:04:19;;;;;;;;;;;1.10;99.90;;;;;;5018325;28;19992;-84
2022/01/12 01:06:45;;;;;;;;;;;0.80;99.90;;;;;;5018491;28;19963;-84
2022/01/12 01:09:10;;;;;;;;;;;0.60;99.90;;;;;;5018238;28;19905;-83
2022/01/12 01:11:36;;;;;;;;;;;0.70;99.90;;;;;;5035883;28;19909;-83
2022/01/12 01:14:11;;;;;;;;;;;0.90;99.90;;;;;;5018176;28;19905;-83
2022/01/12 01:27:17;;;;;;;;;;;0.80;99.90;;;;;;5035992;28;19963;-82
2022/01/12 01:29:43;;;;;;;;;;;0.90;99.90;;;;;;5017745;28;19909;-83
2022/01/12 01:32:09;;;;;;;;;;;0.80;99.90;;;;;;5017729;28;20288;-82
2022/01/12 01:34:42;;;;;;;;;;;0.80;99.90;;;;;;5035419;28;19905;-82
2022/01/12 01:37:07;;;;;;;;;;;1.00;99.90;;;;;;5017647;28;19955;-82
2022/01/12 01:39:33;;;;;;;;;;;0.90;99.90;;;;;;5017541;28;19905;-82
2022/01/12 01:42:04;;;;;;;;;;;0.80;99.90;;;;;;5017491;28;19909;-82
2022/01/12 01:55:10;;;;;;;;;;;1.00;99.90;;;;;;5035369;28;19927;-82
2022/01/12 01:57:36;;;;;;;;;;;0.70;99.90;;;;;;5034977;28;19905;-82
2022/01/12 02:00:05;;;;;;;;;;;0.50;99.90;;;;;;5017108;28;19916;-82
2022/01/12 02:02:30;;;;;;;;;;;0.60;99.90;;;;;;5016956;28;19917;-81
2022/01/12 02:04:56;;;;;;;;;;;0.20;99.90;;;;;;5016964;28;20411;-82
2022/01/12 02:07:22;;;;;;;;;;;0.40;99.90;;;;;;5016983;28;19905;-82
2022/01/12 02:09:47;;;;;;;;;;;0.50;99.90;;;;;;5016832;28;19913;-82
2022/01/12 02:12:13;;;;;;;;;;;0.40;99.90;;;;;;5034386;28;19905;-82
2022/01/12 02:14:39;;;;;;;;;;;0.40;99.90;;;;;;5016689;28;19905;-82
2022/01/12 02:17:16;;;;;;;;;;;0.30;99.90;;;;;;5016896;28;20331;-82
2022/01/12 02:36:26;;;;;;;;;;;0.30;99.90;;;;;;5034921;28;20005;-82
2022/01/12 02:41:37;;;;;;;;;;;-0.20;99.90;;;;;;5034902;28;19927;-82
2022/01/12 02:54:46;;;;;;;;;;;0.30;99.90;;;;;;5034070;28;19927;-82
2022/01/12 02:57:11;;;;;;;;;;;0.30;99.90;;;;;;5016247;28;19905;-82
2022/01/12 02:59:43;;;;;;;;;;;-0.20;99.90;;;;;;5016245;28;19909;-82
2022/01/12 03:03:01;;;;;;;;;;;-0.20;99.90;;;;;;5016004;28;19974;-82
2022/01/12 03:05:19;;;;;;;;;;;-0.20;99.90;;;;;;5029891;28;19995;-82
2022/01/12 03:07:43;;;;;;;;;;;-0.30;99.90;;;;;;5033652;28;19912;-82
2022/01/12 03:10:10;;;;;;;;;;;0.00;99.90;;;;;;5034072;28;19909;-82
2022/01/12 03:12:36;;;;;;;;;;;0.30;99.90;;;;;;5015345;28;19912;-82
2022/01/12 03:15:02;;;;;;;;;;;0.20;99.90;;;;;;5016072;28;19911;-82
2022/01/12 03:17:28;;;;;;;;;;;0.00;99.90;;;;;;5016047;28;19909;-82
2022/01/12 03:19:53;;;;;;;;;;;-0.20;99.90;;;;;;5015940;28;19905;-82
2022/01/12 03:22:19;;;;;;;;;;;-0.30;99.90;;;;;;5033576;28;19905;-82
2022/01/12 03:24:44;;;;;;;;;;;-0.50;99.90;;;;;;5015485;28;19967;-82
2022/01/12 03:27:13;;;;;;;;;;;-0.20;99.90;;;;;;5033494;28;19951;-82
2022/01/12 03:29:44;;;;;;;;;;;-0.20;99.90;;;;;;5033394;28;19916;-82
2022/01/12 03:32:12;;;;;;;;;;;-0.10;99.90;;;;;;5015723;28;19906;-82
2022/01/12 03:34:41;;;;;;;;;;;0.40;99.90;;;;;;5015670;28;20014;-82
2022/01/12 03:40:02;;;;;;;;;;;-0.50;99.90;;;;;;4963179;28;19918;-82
2022/01/12 03:42:27;;;;;;;;;;;-0.60;99.90;;;;;;5015589;28;19905;-82
2022/01/12 03:44:53;;;;;;;;;;;-0.50;99.90;;;;;;5015595;28;20254;-82
2022/01/12 03:47:19;;;;;;;;;;;-0.50;99.90;;;;;;5033399;28;20280;-82
2022/01/12 03:49:44;;;;;;;;;;;-0.40;99.90;;;;;;5015561;28;19959;-82
2022/01/12 03:52:10;;;;;;;;;;;-0.40;99.90;;;;;;5015680;28;19948;-82
2022/01/12 03:54:35;;;;;;;;;;;-0.40;99.90;;;;;;5015677;28;19944;-82
2022/01/12 03:57:01;;;;;;;;;;;-0.40;99.90;;;;;;5033234;28;19909;-82
2022/01/12 03:59:26;;;;;;;;;;;-0.40;99.90;;;;;;5033273;28;19913;-82
2022/01/12 04:01:52;;;;;;;;;;;-0.20;99.90;;;;;;5015367;28;19967;-82
2022/01/12 04:04:23;;;;;;;;;;;-0.30;99.90;;;;;;5015646;28;19910;-82
2022/01/12 04:09:33;;;;;;;;;;;-0.30;99.90;;;;;;5033422;28;19959;-82
2022/01/12 04:11:59;;;;;;;;;;;0.00;99.90;;;;;;5015480;28;20320;-82
2022/01/12 04:14:25;;;;;;;;;;;0.20;99.90;;;;;;5033188;28;19944;-82
2022/01/12 04:16:50;;;;;;;;;;;0.10;99.90;;;;;;5015465;28;19912;-82
2022/01/12 04:19:16;;;;;;;;;;;-0.10;99.90;;;;;;5015981;28;19940;-82
2022/01/12 04:21:46;;;;;;;;;;;-0.20;99.90;;;;;;5033074;28;19973;-82
2022/01/12 04:24:13;;;;;;;;;;;-0.20;99.90;;;;;;5015387;28;19944;-82
2022/01/12 04:26:39;;;;;;;;;;;-0.20;99.90;;;;;;5015292;28;19905;-82
2022/01/12 04:29:06;;;;;;;;;;;-0.20;99.90;;;;;;5033082;28;20349;-83
2022/01/12 04:31:33;;;;;;;;;;;-0.20;99.90;;;;;;5032899;28;20277;-82
2022/01/12 04:33:59;;;;;;;;;;;-0.10;99.90;;;;;;5015240;28;19905;-83
2022/01/12 04:36:25;;;;;;;;;;;-0.30;99.90;;;;;;5016441;28;19905;-82
2022/01/12 04:38:50;;;;;;;;;;;-0.50;99.90;;;;;;5018845;28;19951;-82
2022/01/12 04:41:16;;;;;;;;;;;-0.80;99.90;;;;;;5036528;28;20276;-83
2022/01/12 04:43:42;;;;;;;;;;;-0.80;99.90;;;;;;5018768;28;19909;-83
2022/01/12 04:46:22;;;;;;;;;;;-0.80;99.90;;;;;;5018629;28;19991;-83
2022/01/12 04:51:16;;;;;;;;;;;-0.60;99.90;;;;;;5036449;28;19931;-83
2022/01/12 04:53:41;;;;;;;;;;;-0.80;99.90;;;;;;5036175;28;20349;-83
2022/01/12 04:56:07;;;;;;;;;;;-0.10;99.90;;;;;;5018343;28;19987;-83
2022/01/12 04:58:32;;;;;;;;;;;-0.40;99.90;;;;;;5036060;28;19959;-83
2022/01/12 05:01:05;;;;;;;;;;;-0.40;99.90;;;;;;5018330;28;19916;-83
2022/01/12 05:06:38;;;;;;;;;;;0.00;99.90;;;;;;5016671;28;19912;-83
2022/01/12 05:14:18;;;;;;;;;;;-0.40;99.90;;;;;;5016391;28;19911;-83
2022/01/12 05:16:44;;;;;;;;;;;-0.20;99.90;;;;;;5016250;28;19914;-83
2022/01/12 05:19:09;;;;;;;;;;;-0.30;99.90;;;;;;5014924;28;19951;-83
2022/01/12 05:21:35;;;;;;;;;;;-0.10;99.90;;;;;;5015006;28;19906;-82
2022/01/12 05:24:06;;;;;;;;;;;-0.10;99.90;;;;;;5014750;28;19932;-82
2022/01/12 05:26:31;;;;;;;;;;;-0.20;99.90;;;;;;5014693;28;19906;-83
2022/01/12 05:28:57;;;;;;;;;;;-0.10;99.90;;;;;;5014546;28;19913;-82
2022/01/12 05:31:23;;;;;;;;;;;-0.30;99.90;;;;;;5015620;28;20317;-83
2022/01/12 05:33:49;;;;;;;;;;;-0.40;99.90;;;;;;5014437;28;19910;-83
2022/01/12 05:36:17;;;;;;;;;;;-0.60;99.90;;;;;;5014455;28;19928;-83
2022/01/12 05:38:42;;;;;;;;;;;-0.50;99.90;;;;;;5015619;28;19912;-83
2022/01/12 05:41:08;;;;;;;;;;;-0.70;99.90;;;;;;5014290;28;20003;-83
2022/01/12 05:43:36;;;;;;;;;;;-0.80;99.90;;;;;;5014261;28;19913;-83
2022/01/12 05:46:09;;;;;;;;;;;-0.50;99.90;;;;;;5015492;28;19909;-83
2022/01/12 05:51:19;;;;;;;;;;;-0.60;99.90;;;;;;5015741;28;19959;-83
2022/01/12 05:53:45;;;;;;;;;;;-0.60;99.90;;;;;;5015312;28;19907;-83
2022/01/12 05:56:10;;;;;;;;;;;-0.60;99.90;;;;;;5015288;28;19906;-83
2022/01/12 05:58:36;;;;;;;;;;;-0.50;99.90;;;;;;5013929;28;19909;-82
2022/01/12 06:01:01;;;;;;;;;;;-0.60;99.90;;;;;;5015211;28;20350;-82
2022/01/12 06:03:27;;;;;;;;;;;-0.30;99.90;;;;;;5032186;28;19990;-83
2022/01/12 06:05:53;;;;;;;;;;;0.00;99.90;;;;;;5017120;28;20357;-84
2022/01/12 06:08:18;;;;;;;;;;;0.00;99.90;;;;;;5017145;28;19912;-84
2022/01/12 06:10:44;;;;;;;;;;;0.10;99.90;;;;;;5017013;28;19909;-84
2022/01/12 06:13:10;;;;;;;;;;;0.00;99.90;;;;;;5017008;28;19912;-85
2022/01/12 06:15:35;;;;;;;;;;;-0.30;99.90;;;;;;5016973;28;19905;-84
2022/01/12 06:18:01;;;;;;;;;;;-0.40;99.90;;;;;;5016869;28;19952;-84
2022/01/12 06:20:26;;;;;;;;;;;-0.30;99.90;;;;;;5034672;28;20300;-84
2022/01/12 06:22:52;;;;;;;;;;;-0.50;99.90;;;;;;5016766;28;19912;-84
2022/01/12 06:25:18;;;;;;;;;;;-0.40;99.90;;;;;;5016744;28;19909;-84
2022/01/12 06:27:53;;;;;;;;;;;-0.40;99.90;;;;;;5016719;28;19987;-84
2022/01/12 06:32:54;;;;;;;;;;;-0.80;99.90;;;;;;5034378;28;19971;-84
2022/01/12 06:35:20;;;;;;;;;;;-0.60;99.90;;;;;;5016631;28;20352;-84
2022/01/12 06:37:46;;;;;;;;;;;-0.60;99.90;;;;;;5016525;28;19905;-84
2022/01/12 06:40:12;;;;;;;;;;;-0.60;99.90;;;;;;5016771;28;19905;-85
2022/01/12 06:42:38;;;;;;;;;;;-0.90;99.90;;;;;;5016475;28;19909;-84
2022/01/12 06:45:04;;;;;;;;;;;-0.60;99.90;;;;;;5016390;28;20325;-84
2022/01/12 06:47:29;;;;;;;;;;;-0.80;99.90;;;;;;5016310;28;19905;-84
2022/01/12 06:49:55;;;;;;;;;;;-1.00;99.90;;;;;;5033966;28;19909;-84
2022/01/12 06:52:20;;;;;;;;;;;-0.90;99.90;;;;;;5016196;28;19909;-84
2022/01/12 06:54:46;;;;;;;;;;;-0.90;99.90;;;;;;5016267;28;19905;-85
2022/01/12 06:57:11;;;;;;;;;;;-0.80;99.90;;;;;;5016233;28;19971;-84
2022/01/12 06:59:37;;;;;;;;;;;-0.90;99.90;;;;;;5033572;28;20367;-84
2022/01/12 07:02:04;;;;;;;;;;;-0.60;99.90;;;;;;5033635;28;20008;-85
2022/01/12 07:04:30;;;;;;;;;;;-0.40;99.90;;;;;;5016984;28;20234;-84
2022/01/12 07:06:55;;;;;;;;;;;-0.20;99.90;;;;;;5033700;28;19905;-84
2022/01/12 07:09:21;;;;;;;;;;;-0.60;99.90;;;;;;5033815;28;19995;-84
2022/01/12 07:11:48;;;;;;;;;;;-0.40;99.90;;;;;;5033684;28;19909;-85
2022/01/12 07:14:14;;;;;;;;;;;-0.30;99.90;;;;;;5015927;28;19945;-85
2022/01/12 07:16:39;;;;;;;;;;;-0.20;99.90;;;;;;5034003;28;19944;-85
2022/01/12 07:19:05;;;;;;;;;;;-0.50;99.90;;;;;;5015980;28;19967;-85
2022/01/12 07:21:30;;;;;;;;;;;-0.90;99.90;;;;;;5015910;28;20254;-84
2022/01/12 07:23:56;;;;;;;;;;;-0.90;99.90;;;;;;5015751;28;19905;-84
2022/01/12 07:26:22;;;;;;;;;;;-1.00;99.90;;;;;;5015767;28;19912;-84
2022/01/12 07:28:48;;;;;;;;;;;-1.10;99.90;;;;;;5015814;28;19909;-85
2022/01/12 07:31:14;;;;;;;;;;;-0.70;99.90;;;;;;5016165;28;19909;-85
2022/01/12 07:33:40;;;;;;;;;;;-0.90;99.90;;;;;;5016096;28;20006;-85
2022/01/12 07:36:05;;;;;;;;;;;-1.10;99.90;;;;;;5016021;28;19905;-85
2022/01/12 07:38:31;;;;;;;;;;;-1.00;99.90;;;;;;5033466;28;20353;-85
2022/01/12 07:40:57;;;;;;;;;;;-0.80;99.90;;;;;;5015597;28;19905;-85
2022/01/12 07:43:22;;;;;;;;;;;-0.60;99.90;;;;;;5015580;28;19905;-85
2022/01/12 07:45:48;;;;;;;;;;;-0.90;99.90;;;;;;5015622;28;19909;-86
2022/01/12 07:48:14;;;;;;;;;;;-0.60;99.90;;;;;;5015484;28;19905;-85
2022/01/12 07:50:40;;;;;;;;;;;-0.60;99.90;;;;;;5033444;28;19955;-85
2022/01/12 07:53:05;;;;;;;;;;;-0.60;99.90;;;;;;5015532;28;19905;-85
2022/01/12 07:55:31;;;;;;;;;;;-0.90;99.90;;;;;;5033216;28;20372;-85
2022/01/12 07:57:57;;;;;;;;;;;-0.30;99.90;;;;;;5015775;28;19909;-85
2022/01/12 08:00:23;;;;;;;;;;;-0.50;99.90;;;;;;5015550;28;20388;-85
2022/01/12 08:02:51;;;;;;;;;;;-0.30;99.90;;;;;;5015443;28;19927;-85
2022/01/12 08:05:18;;;;;;;;;;;0.00;99.90;;;;;;5033078;28;19912;-84
2022/01/12 08:07:44;;;;;;;;;;;0.10;99.90;;;;;;5015386;28;20352;-85
2022/01/12 08:10:10;;;;;;;;;;;0.10;99.90;;;;;;5016211;28;19909;-84
2022/01/12 08:12:36;;;;;;;;;;;0.20;99.90;;;;;;5018396;28;20367;-84
2022/01/12 08:15:03;;;;;;;;;;;0.10;99.90;;;;;;5019257;28;19931;-84
2022/01/12 08:17:29;;;;;;;;;;;0.10;99.90;;;;;;5036913;28;19944;-84
2022/01/12 08:19:56;;;;;;;;;;;-0.10;99.90;;;;;;5036855;28;19932;-84
2022/01/12 08:22:22;;;;;;;;;;;0.10;99.90;;;;;;5018995;28;19992;-83
2022/01/12 08:24:48;;;;;;;;;;;0.20;99.90;;;;;;5018996;28;19956;-83
2022/01/12 08:27:14;;;;;;;;;;;0.20;99.90;;;;;;5018952;28;20257;-83
2022/01/12 08:29:39;;;;;;;;;;;0.20;99.90;;;;;;5036902;28;19905;-83
2022/01/12 08:32:05;;;;;;;;;;;0.40;99.90;;;;;;5018922;28;20316;-83
2022/01/12 08:34:31;;;;;;;;;;;0.60;99.90;;;;;;5036655;28;19905;-83
2022/01/12 08:36:56;;;;;;;;;;;1.00;99.90;;;;;;5018847;28;19951;-82
2022/01/12 08:39:22;;;;;;;;;;;1.40;99.90;;;;;;5018732;28;19928;-83
2022/01/12 08:41:48;;;;;;;;;;;1.50;99.90;;;;;;5019501;28;20391;-82
2022/01/12 08:44:13;;;;;;;;;;;1.40;99.90;;;;;;5018921;28;19905;-83
2022/01/12 08:46:40;;;;;;;;;;;1.40;99.90;;;;;;5036541;28;20438;-83
2022/01/12 08:49:06;;;;;;;;;;;1.20;99.90;;;;;;5036324;28;20384;-83
2022/01/12 08:51:31;;;;;;;;;;;0.90;99.90;;;;;;5036264;28;19909;-83
2022/01/12 08:53:57;;;;;;;;;;;1.00;99.90;;;;;;5036271;28;20352;-83
2022/01/12 08:56:23;;;;;;;;;;;1.30;99.90;;;;;;5036166;28;19983;-83
2022/01/12 08:58:49;;;;;;;;;;;1.70;99.90;;;;;;5018448;28;19911;-83
2022/01/12 09:01:15;;;;;;;;;;;1.80;99.90;;;;;;5036107;28;19905;-83
2022/01/12 09:03:41;;;;;;;;;;;1.90;99.90;;;;;;5018207;28;20332;-83
2022/01/12 09:06:07;;;;;;;;;;;2.10;99.90;;;;;;5018235;28;19905;-82
2022/01/12 09:08:34;;;;;;;;;;;1.80;99.90;;;;;;5036015;28;19912;-83
2022/01/12 09:11:00;;;;;;;;;;;1.60;99.90;;;;;;5018246;28;20320;-83
2022/01/12 09:13:26;;;;;;;;;;;1.60;99.90;;;;;;5035897;28;19905;-83
2022/01/12 09:15:51;;;;;;;;;;;1.50;99.90;;;;;;5036231;28;19912;-83
2022/01/12 09:18:18;;;;;;;;;;;1.80;99.90;;;;;;5018137;28;19971;-82
2022/01/12 09:20:44;;;;;;;;;;;1.50;99.90;;;;;;5018540;28;19905;-80
2022/01/12 09:23:10;;;;;;;;;;;1.70;99.90;;;;;;5018370;28;19912;-81
2022/01/12 09:25:39;;;;;;;;;;;1.80;99.90;;;;;;5018003;28;19909;-80
2022/01/12 09:28:08;;;;;;;;;;;1.80;99.90;;;;;;5017998;28;19940;-82
2022/01/12 09:30:33;;;;;;;;;;;1.60;99.90;;;;;;5017952;28;19913;-83
2022/01/12 09:32:59;;;;;;;;;;;2.00;99.90;;;;;;5017939;28;19912;-80
2022/01/12 09:35:25;;;;;;;;;;;2.20;99.90;;;;;;5017633;28;19905;-81
2022/01/12 09:37:51;;;;;;;;;;;2.30;99.90;;;;;;5017802;28;20289;-80
2022/01/12 09:40:17;;;;;;;;;;;2.30;99.90;;;;;;5017690;28;19905;-80
2022/01/12 09:42:44;;;;;;;;;;;2.40;99.90;;;;;;5035572;28;19905;-82
2022/01/12 09:45:14;;;;;;;;;;;2.80;99.90;;;;;;5017572;28;19905;-83
2022/01/12 09:47:40;;;;;;;;;;;3.20;99.90;;;;;;5035600;28;19974;-82
2022/01/12 09:50:06;;;;;;;;;;;3.00;99.90;;;;;;5017965;28;20004;-82
2022/01/12 09:52:31;;;;;;;;;;;3.20;99.90;;;;;;5035751;28;20414;-82
2022/01/12 09:54:57;;;;;;;;;;;3.40;99.90;;;;;;5017567;28;19905;-82
2022/01/12 09:57:22;;;;;;;;;;;3.70;99.90;;;;;;5017507;28;19905;-82
2022/01/12 09:59:48;;;;;;;;;;;4.10;99.90;;;;;;5017303;28;19909;-80
2022/01/12 10:02:14;;;;;;;;;;;4.60;99.90;;;;;;5035033;28;19917;-82
2022/01/12 10:04:41;;;;;;;;;;;4.80;99.90;;;;;;5035312;28;19928;-81
2022/01/12 10:07:07;;;;;;;;;;;4.80;99.90;;;;;;5017220;28;19910;-81
2022/01/12 10:09:34;;;;;;;;;;;4.50;99.90;;;;;;5017173;28;19905;-81
2022/01/12 10:12:01;;;;;;;;;;;4.50;99.90;;;;;;5017403;28;20349;-82
2022/01/12 10:14:45;;;;;;;;;;;4.60;99.90;;;;;;5035126;28;19927;-81
2022/01/12 10:17:11;;;;;;;;;;;4.60;99.90;;;;;;5035173;28;19909;-82
2022/01/12 10:19:36;;;;;;;;;;;5.00;99.90;;;;;;5017628;28;19912;-82
2022/01/12 10:22:04;;;;;;;;;;;4.80;99.90;;;;;;5017506;28;19905;-82
2022/01/12 10:24:31;;;;;;;;;;;4.90;99.90;;;;;;5017156;28;19912;-82
2022/01/12 10:26:57;;;;;;;;;;;5.00;99.90;;;;;;5018044;28;19905;-82
2022/01/12 10:29:24;;;;;;;;;;;4.90;99.90;;;;;;5016938;28;19952;-82
2022/01/12 10:31:57;;;;;;;;;;;5.00;99.90;;;;;;5034613;28;19909;-82
2022/01/12 10:34:25;;;;;;;;;;;4.80;99.90;;;;;;5016112;28;19905;-82
2022/01/12 10:36:52;;;;;;;;;;;4.70;99.90;;;;;;5016832;28;20002;-82
2022/01/12 10:39:18;;;;;;;;;;;4.60;99.90;;;;;;5034723;28;20418;-82
2022/01/12 10:41:55;;;;;;;;;;;4.30;99.90;;;;;;5016628;28;20279;-82
2022/01/12 10:44:26;;;;;;;;;;;4.20;99.90;;;;;;5034465;28;19905;-82
2022/01/12 10:47:05;;;;;;;;;;;3.80;99.90;;;;;;5016489;28;19905;-82
2022/01/12 10:49:33;;;;;;;;;;;4.00;99.90;;;;;;5034327;28;20324;-82
2022/01/12 10:51:58;;;;;;;;;;;4.50;99.90;;;;;;5016526;28;19959;-82
2022/01/12 10:54:24;;;;;;;;;;;4.80;99.90;;;;;;5034022;28;20272;-83
2022/01/12 10:56:50;;;;;;;;;;;5.60;99.90;;;;;;5016320;28;20285;-82
2022/01/12 10:59:16;;;;;;;;;;;5.80;99.90;;;;;;5034110;28;19912;-82
2022/01/12 11:01:42;;;;;;;;;;;5.80;99.90;;;;;;5033811;28;20311;-82
2022/01/12 11:04:07;;;;;;;;;;;5.90;99.90;;;;;;5016593;28;19908;-82
2022/01/12 11:06:33;;;;;;;;;;;6.00;99.90;;;;;;5016133;28;19905;-82
2022/01/12 11:08:59;;;;;;;;;;;6.60;99.90;;;;;;5016242;28;19905;-83
2022/01/12 11:11:26;;;;;;;;;;;7.40;99.90;;;;;;5016158;28;19913;-83
2022/01/12 11:13:52;;;;;;;;;;;7.40;99.90;;;;;;5034181;28;19905;-80
2022/01/12 11:16:25;;;;;;;;;;;7.20;99.90;;;;;;5033745;28;19920;-80
2022/01/12 11:18:52;;;;;;;;;;;7.10;99.90;;;;;;5033654;28;19905;-80
2022/01/12 11:21:21;;;;;;;;;;;7.40;99.90;;;;;;5015886;28;20348;-79
2022/01/12 11:23:47;;;;;;;;;;;7.80;99.90;;;;;;5015906;28;20373;-79
2022/01/12 11:26:28;;;;;;;;;;;8.00;99.90;;;;;;5015822;28;20020;-79
2022/01/12 11:28:55;;;;;;;;;;;7.80;99.90;;;;;;5015844;28;19912;-80
2022/01/12 11:31:34;;;;;;;;;;;7.50;99.90;;;;;;5033339;28;19915;-79
2022/01/12 11:33:59;;;;;;;;;;;7.10;99.90;;;;;;5033675;28;19936;-80
2022/01/12 11:36:28;;;;;;;;;;;7.00;99.90;;;;;;5016012;28;19905;-80
2022/01/12 11:39:02;;;;;;;;;;;7.30;99.90;;;;;;5015667;28;20369;-79
2022/01/12 11:41:28;;;;;;;;;;;7.40;99.90;;;;;;5015640;28;19905;-80
2022/01/12 11:44:00;;;;;;;;;;;7.50;99.90;;;;;;5015693;28;20269;-79
2022/01/12 11:46:27;;;;;;;;;;;6.70;99.90;;;;;;5018613;28;19905;-79
2022/01/12 11:48:54;;;;;;;;;;;7.30;99.90;;;;;;5019705;28;19905;-79
2022/01/12 11:51:20;;;;;;;;;;;7.60;99.90;;;;;;5037293;28;19959;-79
2022/01/12 11:53:50;;;;;;;;;;;7.40;99.90;;;;;;5019645;28;20265;-79
2022/01/12 11:56:18;;;;;;;;;;;7.40;99.90;;;;;;5019683;28;20246;-79
2022/01/12 11:59:02;;;;;;;;;;;7.20;99.90;;;;;;5019781;28;19905;-80
2022/01/12 12:01:43;;;;;;;;;;;8.00;99.90;;;;;;5019277;28;20365;-80
2022/01/12 12:04:09;;;;;;;;;;;8.70;99.90;;;;;;5019461;28;19908;-80
2022/01/12 12:06:36;;;;;;;;;;;8.90;99.90;;;;;;5019436;28;20004;-80
2022/01/12 12:09:06;;;;;;;;;;;8.40;99.90;;;;;;5037113;28;19965;-80
2022/01/12 12:11:32;;;;;;;;;;;9.00;99.90;;;;;;5019230;28;19935;-80
2022/01/12 12:13:59;;;;;;;;;;;9.30;99.90;;;;;;5019472;28;19905;-80
2022/01/12 12:16:24;;;;;;;;;;;9.30;99.90;;;;;;5019223;28;19905;-81
2022/01/12 12:18:50;;;;;;;;;;;10.00;99.90;;;;;;5019165;28;20366;-81
2022/01/12 12:21:16;;;;;;;;;;;10.10;99.90;;;;;;5019093;28;19905;-81
2022/01/12 12:23:41;;;;;;;;;;;10.50;99.90;;;;;;5019097;28;19905;-80
2022/01/12 12:26:08;;;;;;;;;;;10.50;99.90;;;;;;5019150;28;20012;-80
2022/01/12 12:28:34;;;;;;;;;;;10.10;99.90;;;;;;5018925;28;19905;-81
2022/01/12 12:30:59;;;;;;;;;;;10.30;99.90;;;;;;5018891;28;19924;-81
2022/01/12 12:33:25;;;;;;;;;;;10.80;99.90;;;;;;5018909;28;19905;-81
2022/01/12 12:35:50;;;;;;;;;;;11.10;99.90;;;;;;5018850;28;19905;-81
2022/01/12 12:38:19;;;;;;;;;;;11.30;99.90;;;;;;5018889;28;19955;-81
2022/01/12 12:40:49;;;;;;;;;;;11.60;99.40;;;;;;5018789;28;19906;-81
2022/01/12 12:43:21;;;;;;;;;;;11.90;98.50;;;;;;5018758;28;20284;-81
2022/01/12 12:45:51;;;;;;;;;;;11.10;99.40;;;;;;5018722;28;19909;-81
2022/01/12 12:48:19;;;;;;;;;;;11.70;98.70;;;;;;5018675;28;19959;-81
2022/01/12 12:50:44;;;;;;;;;;;12.10;96.70;;;;;;5018466;28;19912;-80
2022/01/12 12:53:10;;;;;;;;;;;13.40;96.80;;;;;;5018473;28;20011;-80
2022/01/12 12:55:40;;;;;;;;;;;12.90;95.40;;;;;;5036200;28;19911;-80
2022/01/12 12:58:06;;;;;;;;;;;12.60;94.40;;;;;;5035458;28;20357;-80
2022/01/12 13:00:32;;;;;;;;;;;12.50;95.70;;;;;;5036402;28;19905;-81
2022/01/12 13:02:59;;;;;;;;;;;13.10;93.60;;;;;;5018073;28;20086;-81
2022/01/12 13:05:30;;;;;;;;;;;14.10;91.90;;;;;;5018254;28;20439;-81
2022/01/12 13:07:56;;;;;;;;;;;14.10;91.90;;;;;;5036534;28;19945;-80
2022/01/12 13:10:22;;;;;;;;;;;13.30;92.10;;;;;;5018088;28;19959;-80
2022/01/12 13:12:49;;;;;;;;;;;12.90;92.10;;;;;;5018146;28;19905;-81
2022/01/12 13:15:19;;;;;;;;;;;12.70;91.80;;;;;;5035838;28;19952;-81
2022/01/12 13:17:45;;;;;;;;;;;13.60;90.10;;;;;;5018029;28;19905;-80
2022/01/12 13:22:52;;;;;;;;;;;14.30;89.90;;;;;;5035758;28;20278;-80
2022/01/12 13:25:17;;;;;;;;;;;15.40;86.00;;;;;;5035716;28;19949;-80
2022/01/12 13:27:45;;;;;;;;;;;15.20;84.30;;;;;;5035598;28;20353;-81
2022/01/12 13:30:22;;;;;;;;;;;15.20;81.60;;;;;;5018047;28;19913;-80
2022/01/12 13:32:52;;;;;;;;;;;15.20;82.70;;;;;;5017774;28;20012;-80
2022/01/12 13:35:18;;;;;;;;;;;15.40;83.00;;;;;;5035510;28;19912;-80
2022/01/12 13:37:52;;;;;;;;;;;16.00;80.40;;;;;;5017979;28;20256;-80
2022/01/12 13:40:17;;;;;;;;;;;15.40;80.00;;;;;;5017714;28;20003;-80
2022/01/12 13:42:50;;;;;;;;;;;15.20;80.00;;;;;;5035343;28;19992;-80
2022/01/12 13:45:18;;;;;;;;;;;15.50;79.50;;;;;;5017492;28;20000;-80
2022/01/12 13:47:52;;;;;;;;;;;15.30;78.70;;;;;;5017825;28;19940;-80
2022/01/12 13:50:19;;;;;;;;;;;14.20;81.80;;;;;;5017406;28;19955;-80
2022/01/12 13:52:54;;;;;;;;;;;14.20;83.20;;;;;;5017464;28;19905;-80
2022/01/12 13:55:20;;;;;;;;;;;13.50;84.60;;;;;;5017659;28;20000;-80
2022/01/12 13:57:46;;;;;;;;;;;14.00;82.20;;;;;;5017350;28;19940;-80
2022/01/12 14:00:19;;;;;;;;;;;13.80;81.30;;;;;;5017295;28;20406;-80
2022/01/12 14:02:45;;;;;;;;;;;13.40;83.50;;;;;;5017075;28;19917;-79
2022/01/12 14:05:17;;;;;;;;;;;13.20;85.30;;;;;;5017115;28;19905;-79
2022/01/12 14:07:58;;;;;;;;;;;12.90;85.40;;;;;;5017175;28;19905;-80
2022/01/12 14:10:24;;;;;;;;;;;11.10;89.10;;;;;;5016320;28;19913;-80
2022/01/12 14:12:50;;;;;;;;;;;9.80;91.10;;;;;;5017424;28;19912;-80
2022/01/12 14:15:21;;;;;;;;;;;8.70;93.80;;;;;;5034726;28;19911;-80
2022/01/12 14:17:48;;;;;;;;;;;7.80;94.90;;;;;;5035035;28;19912;-80
2022/01/12 14:20:22;;;;;;;;;;;6.90;98.10;;;;;;5016891;28;20423;-80
2022/01/12 14:23:03;;;;;;;;;;;6.20;99.90;;;;;;5016910;28;19911;-79
2022/01/12 14:25:39;;;;;;;;;;;5.90;99.90;;;;;;5034550;28;19913;-79
2022/01/12 14:28:05;;;;;;;;;;;5.60;99.90;;;;;;5034471;28;20276;-80
2022/01/12 14:30:31;;;;;;;;;;;5.20;99.90;;;;;;5016681;28;19909;-80
2022/01/12 14:32:56;;;;;;;;;;;4.90;99.90;;;;;;5016594;28;19989;-80
2022/01/12 14:35:22;;;;;;;;;;;4.80;99.90;;;;;;5016633;28;19904;-80
2022/01/12 14:37:49;;;;;;;;;;;4.70;99.90;;;;;;5016606;28;20335;-80
2022/01/12 14:40:15;;;;;;;;;;;4.50;99.90;;;;;;5034509;28;19983;-82
2022/01/12 14:42:41;;;;;;;;;;;4.50;99.90;;;;;;5016586;28;19905;-82
2022/01/12 14:45:08;;;;;;;;;;;4.40;99.90;;;;;;5016560;28;19955;-80
2022/01/12 14:47:33;;;;;;;;;;;4.20;99.90;;;;;;5034299;28;19909;-81
2022/01/12 14:49:59;;;;;;;;;;;4.20;99.90;;;;;;5016399;28;19912;-82
2022/01/12 14:52:24;;;;;;;;;;;4.10;99.90;;;;;;5034020;28;19909;-82
2022/01/12 14:54:50;;;;;;;;;;;4.00;99.90;;;;;;5034099;28;19912;-81
2022/01/12 14:57:15;;;;;;;;;;;3.80;99.90;;;;;;5034212;28;19924;-80
2022/01/12 14:59:41;;;;;;;;;;;3.80;99.90;;;;;;5016332;28;19971;-80
2022/01/12 15:02:07;;;;;;;;;;;3.60;99.90;;;;;;5015981;28;19917;-80
2022/01/12 15:04:32;;;;;;;;;;;3.40;99.90;;;;;;5033835;28;19905;-82
2022/01/12 15:06:58;;;;;;;;;;;3.30;99.90;;;;;;5015962;28;20090;-81
2022/01/12 15:09:23;;;;;;;;;;;3.20;99.90;;;;;;5033662;28;19948;-81
2022/01/12 15:11:50;;;;;;;;;;;3.10;99.90;;;;;;5015853;28;19909;-82
2022/01/12 15:14:29;;;;;;;;;;;3.10;99.90;;;;;;5015964;28;20339;-82
2022/01/12 15:16:55;;;;;;;;;;;3.00;99.90;;;;;;5033950;28;20276;-81
2022/01/12 15:19:21;;;;;;;;;;;3.00;99.90;;;;;;5033631;28;19905;-81
2022/01/12 15:21:47;;;;;;;;;;;3.10;99.90;;;;;;5015666;28;20410;-82
2022/01/12 15:24:12;;;;;;;;;;;3.10;99.90;;;;;;5015936;28;19906;-82
2022/01/12 15:26:38;;;;;;;;;;;3.30;99.90;;;;;;5015921;28;19912;-82
2022/01/12 15:29:04;;;;;;;;;;;3.60;99.90;;;;;;5015848;28;19905;-82
2022/01/12 15:31:29;;;;;;;;;;;3.60;99.90;;;;;;5015739;28;19916;-82
2022/01/12 15:33:55;;;;;;;;;;;3.50;99.90;;;;;;5015704;28;19944;-82
2022/01/12 15:36:21;;;;;;;;;;;3.30;99.90;;;;;;5017142;28;19940;-81
2022/01/12 15:38:46;;;;;;;;;;;3.20;99.90;;;;;;5015676;28;19905;-81
2022/01/12 15:41:12;;;;;;;;;;;3.00;99.90;;;;;;5015649;28;19912;-81
2022/01/12 15:43:38;;;;;;;;;;;2.80;99.90;;;;;;5033450;28;19904;-81
2022/01/12 15:46:03;;;;;;;;;;;2.70;99.90;;;;;;5015683;28;19905;-82